Napoli, Italy

1:03 PM CET on March 04, 2015 (GMT +0100)
Napoli - Posillipo | Change Station
CLOSE
Current Station
Personal Weather Station
Location: Naples,
Elevation: 164 ft
Nearby Weather Stations
Active Advisory: Rain

Elev 164 ft 40.81 °N, 14.21 °E | Updated 2 minutes ago

Scattered Clouds
Scattered Clouds
61.7 °F
Feels Like 61.7 °F
N
2.5
Wind Variable Wind from SE
Gusts 6.0 mph

Today
High -- | Low -- °F
--% Chance of Precip.
Yesterday
High -- | Low -- °F
Precip. -- in
6:33 AM 5:57 PM
Waxing Gibbous, 99% visible
Pressure 30.15 in
Visibility 6.2 miles
Clouds Scattered Clouds 3000 ft
Dew Point 53 °F
Humidity 74%
Rainfall -999.00 in
Snow Depth Not available.
UV 4 out of 12
Pollen Not available.
Air Quality Not available.
Flu Activity Not available.
METAR LIRN 041150Z 21008KT 180V240 9999 SCT030 15/10 Q1021

More Conditions Fewer Conditions

Pressure 30.15 in
Visibility 6.2 miles
Clouds Scattered Clouds 3000 ft
Dew Point 53 °F
Humidity 74%
Rainfall -999.00 in
Snow Depth Not available.
UV 4 out of 12
Pollen Not available.
Air Quality Not available.
Flu Activity Not available.
METAR LIRN 041150Z 21008KT 180V240 9999 SCT030 15/10 Q1021

More Conditions Fewer Conditions

10-Day Weather Forecast

Almanac

Astronomy

Mar. 04, 2015 Rise Set
Actual Time
Civil Twilight
Nautical Twilight
Astronomical Twilight
Moon
Length of Visible Light
Length of Day
Tomorrow will be .
, % of the Moon is Illuminated

Today's Extremes

Country Highs Country Lows

Community

WunderPhotos

Upload Photos

1,802,436 photos uploaded!

WunderBlogs® & News

Nearby

Air Quality

  Air Quality AQ Index Pollutant
Not available.

Snow Depth

Station Depth Elevation

Earthquake Activity

City Distance Mag. Time & Date
Minimum magnitude displayed is 2.5.

Coastal Water Temperatures

Place Temperature

Nearby Weather Stations